Weather observations for the past three days for
Pella, Pella Municipal Airport
Imperial (Metric)
Date Time (cdt) Wind (mph) Vis. (mi.) Weather Sky Cond. Temperature (ºF) Relative Humidity Wind Chill (°F) Heat Index (°F) Pressure Precipitation (in)
Air Dwpt 6 hour altimeter (in) sea level (mb) 1 hr 3 hr 6 hr
Max. Min.
05 18:55 E 5 10.00 Fair CLR 87.8 76.3 94.3 87.6 69% 99 29.95 0.0
05 18:35 E 6 10.00 Fair CLR 88.5 76.6 68% 100 29.95 0.0
05 18:15 Calm 10.00 Fair CLR 89.2 76.5 66% 101 29.95 0.0
05 17:55 Calm 10.00 Partly Cloudy SCT034 88.9 76.8 68% 101 29.95 0.0
05 17:35 NE 3 10.00 Partly Cloudy SCT034 89.8 76.8 66% 103 29.95 0.0
05 17:15 Calm 10.00 Partly Cloudy SCT034 SCT041 90 76.3 64% 102 29.94 0.0
05 16:55 E 3 10.00 Partly Cloudy SCT034 SCT043 90.9 77.2 64% 105 29.93 0.0
05 16:35 Calm 10.00 Partly Cloudy SCT034 90.3 76.8 65% 103 29.94 0.0
05 16:15 Calm 10.00 Fair CLR 91.2 75.9 61% 103 29.94 0.0
05 15:55 E 5 10.00 Fair CLR 91.2 76.3 62% 104 29.94 0.0
05 15:35 Calm 10.00 Partly Cloudy SCT034 92.3 77.2 61% 106 29.94 0.0
05 15:15 Calm 10.00 Partly Cloudy SCT036 SCT042 SCT065 93.2 77.2 60% 108 29.95 0.0
05 14:55 Calm 10.00 Mostly Cloudy BKN037 BKN050 BKN075 91.4 77.2 63% 105 29.96 0.0
05 12:55 Calm 10.00 Partly Cloudy SCT055 SCT070 SCT080 91.4 76.3 92.1 73.2 61% 104 30 0.0
05 12:35 Calm 10.00 Partly Cloudy SCT060 90.1 75.9 63% 102 29.99 0.0
05 12:15 Calm 10.00 Partly Cloudy SCT060 89.8 75.9 64% 101 29.99 0.0
05 11:55 Calm 10.00 Fair CLR 90.7 75.9 62% 103 29.99 0.0
05 11:35 Calm 10.00 Partly Cloudy SCT065 88.3 75.9 67% 99 30 0.0
05 11:15 Calm 10.00 Overcast OVC060 85.8 75.9 72% 96 30 0.0
05 10:55 Calm 10.00 Overcast OVC060 85.3 75 71% 94 30 0.0
05 10:35 Calm 10.00 Mostly Cloudy BKN060 85.1 75.2 72% 94 29.99 0.0
05 10:15 Calm 10.00 Partly Cloudy SCT060 84.2 75.2 74% 92 29.99 0.0
05 09:55 Calm 10.00 Fair CLR 83.3 74.3 74% 90 29.99 0.0
05 09:35 Calm 10.00 Fair CLR 82.6 74.5 77% 89 29.97 0.0
05 09:15 Calm 10.00 Fair CLR 82.2 74.1 77% 88 29.97 0.0
05 08:55 Calm 10.00 Fair CLR 81.1 74.3 80% 87 29.97 0.0
05 08:35 Calm 10.00 Fair CLR 79.7 74.5 84% 84 29.97 0.0
05 08:15 Calm 10.00 Fair CLR 77.4 73.9 89% 79 29.96 0.0
05 07:55 Calm 10.00 Fair CLR 74.8 73.4 95% 29.96 0.0
05 07:35 Calm 10.00 Fair CLR 74.3 73 96% 29.96 0.0
05 07:15 Calm 10.00 Fair CLR 73.6 72.5 96% 29.95 0.0
05 06:55 Calm 10.00 Fair CLR 73.2 72.3 78.6 72.3 97% 29.95 0.0
05 06:35 Calm 10.00 Partly Cloudy SCT060 73.2 72.1 96% 29.94 0.0
05 06:15 Calm 4.00 Fog/Mist BKN060 73.2 72 96% 29.94 0.0
05 05:55 Calm 10.00 Mostly Cloudy BKN070 73.8 72.7 96% 29.93 0.0
05 05:35 Calm 10.00 Mostly Cloudy BKN060 73.6 72.5 96% 29.93 0.0
05 05:15 Calm 10.00 Mostly Cloudy BKN060 73.6 72.5 96% 29.93 0.0
05 04:55 Calm 10.00 Fair CLR 73.9 73 97% 29.93 0.0
05 04:35 Calm 10.00 Fair CLR 73.6 72.3 96% 29.93 0.0
05 04:15 Calm 10.00 Fair CLR 74.5 73.2 96% 29.93 0.0
05 03:55 Calm 10.00 Fair CLR 74.7 73 95% 29.93 0.0
05 03:35 Calm 10.00 Fair CLR 75.2 73.2 94% 74 29.93 0.0
05 03:15 Calm 10.00 Fair CLR 75.2 73 93% 74 29.93 0.0
05 02:55 Calm 10.00 Fair CLR 75.4 73 92% 74 29.94 0.0
05 02:35 Calm 10.00 Fair CLR 76.8 73.6 90% 78 29.93 0.0
05 02:15 Calm 10.00 Fair CLR 77 73.8 90% 78 29.93 0.0
05 01:55 Calm 10.00 Fair CLR 77.4 74.1 90% 79 29.94 0.0
05 01:35 Calm 10.00 Fair CLR 77.2 74.1 90% 79 29.94 0.0
05 01:15 Calm 10.00 Fair CLR 78.4 74.5 88% 81 29.93 0.0
05 00:55 Calm 7.00 Fair CLR 78.4 74.7 88.5 78.3 88% 81 29.94 0.0
05 00:35 Calm 10.00 Fair CLR 79.5 74.7 85% 84 29.93 0.0
05 00:15 Calm 5.00 Fog/Mist CLR 79 74.7 87% 83 29.93 0.0
04 23:55 Calm 10.00 Fair CLR 78.8 74.8 88% 82 29.93 0.0
04 23:35 Calm 7.00 Fair CLR 79.9 75 85% 85 29.93 0.0
04 23:15 Calm 10.00 Fair CLR 80.2 75.2 85% 85 29.93 0.0
04 22:55 Calm 10.00 Fair CLR 79.2 74.8 87% 83 29.93 0.0
04 22:35 Calm 10.00 Fair CLR 80.4 75.2 84% 86 29.92 0.0
04 22:15 Calm 10.00 Fair CLR 80.1 75.2 85% 85 29.92 0.0
04 21:55 Calm 10.00 Fair CLR 80.4 75.4 85% 86 29.92 0.0
04 21:35 Calm 10.00 Fair CLR 80.4 75.4 85% 86 29.92 0.0
04 21:15 Calm 10.00 Fair CLR 81.7 75.7 82% 89 29.92 0.0
04 20:55 Calm 7.00 Fair with Haze CLR 82.2 75.7 81% 90 29.92 0.0
04 20:35 Calm 10.00 Fair CLR 83.3 75.7 78% 91 29.91 0.0
04 20:15 Calm 10.00 Fair CLR 82.2 75.9 81% 90 29.91 0.0
04 19:55 Calm 10.00 Fair CLR 82.4 76.5 82% 90 29.91 0.0
04 19:35 Calm 10.00 Partly Cloudy SCT110 83.7 77.4 81% 94 29.9 0.0
04 19:15 Calm 10.00 Mostly Cloudy BKN110 86.9 77.2 73% 99 29.9 0.0
04 18:55 Calm 10.00 Partly Cloudy SCT110 88.7 75.6 94.5 88.3 65% 99 29.9 0.0
04 18:35 Calm 10.00 Partly Cloudy SCT110 89.2 75.7 65% 100 29.89 0.0
04 18:15 Calm 10.00 Partly Cloudy SCT120 89.8 74.8 62% 100 29.9 0.0
04 17:55 Calm 10.00 Fair CLR 90.7 75.2 61% 102 29.9 0.0
04 17:35 Calm 10.00 Fair CLR 89.4 73.9 60% 99 29.89 0.0
04 17:15 SW 7 10.00 Fair CLR 91.6 74.7 58% 102 29.89 0.0
04 16:55 Calm 10.00 Fair CLR 92.7 73.4 54% 102 29.89 0.0
04 16:35 S 10 10.00 Fair CLR 91 72.9 55% 99 29.89 0.0
04 16:15 SW 8 10.00 Fair CLR 93 73.2 53% 102 29.89 0.0
04 15:55 S 12 10.00 Fair CLR 93.9 73.6 52% 104 29.9 0.0
04 15:35 S 12 10.00 Fair CLR 93.7 73.2 51% 103 29.9 0.0
04 15:15 S 12 10.00 Fair CLR 92.1 72.3 52% 100 29.9 0.0
04 14:55 S 13 10.00 Fair CLR 94.1 74.3 53% 105 29.9 0.0
04 14:35 S 12 10.00 Fair CLR 93 73.2 53% 102 29.9 0.0
04 14:15 S 9 G 18 10.00 Fair CLR 92.5 73.2 53% 102 29.91 0.0
04 13:55 S 10 10.00 Fair CLR 92.7 73.8 54% 102 29.92 0.0
04 13:35 S 12 10.00 Fair CLR 91.6 74.1 57% 102 29.92 0.0
04 13:15 S 9 G 17 10.00 Fair CLR 91.4 74.1 57% 101 29.92 0.0
04 12:55 SW 12 10.00 Fair CLR 90.7 72.7 91.4 72.7 56% 99 29.93 0.0
04 12:35 S 12 10.00 Fair CLR 91 73.9 57% 101 29.93 0.0
04 12:15 SW 13 10.00 Fair CLR 90.1 73.4 58% 99 29.94 0.0
04 11:55 SW 9 10.00 Fair CLR 89.6 73.2 59% 98 29.94 0.0
04 11:35 SW 9 10.00 Partly Cloudy SCT120 87.4 72.5 61% 95 29.94 0.0
04 11:15 SW 10 G 16 10.00 Partly Cloudy SCT120 88.7 71.8 57% 95 29.94 0.0
04 10:55 SW 14 G 20 10.00 Partly Cloudy SCT120 88.9 72.3 58% 96 29.94 0.0
04 10:35 SW 12 10.00 Partly Cloudy SCT120 87.8 71.8 59% 94 29.94 0.0
04 10:15 SW 9 10.00 Partly Cloudy SCT120 87.8 73.2 62% 96 29.94 0.0
04 09:55 S 6 10.00 Fair CLR 85.3 72.7 66% 92 29.93 0.0
04 09:35 Calm 10.00 Fair CLR 83.8 72.5 69% 90 29.93 0.0
04 09:15 Calm 10.00 Fair CLR 82.2 72.3 72% 87 29.94 0.0
04 08:55 Calm 10.00 Fair CLR 80.8 71.6 74% 85 29.94 0.0
04 08:35 S 6 10.00 Fair CLR 79.7 70.9 75% 83 29.93 0.0
04 08:15 S 7 10.00 Fair CLR 78.3 70.7 78% 81 29.93 0.0
04 07:55 S 6 10.00 Fair CLR 76.3 70.5 82% 77 29.93 0.0
04 07:35 S 7 10.00 Fair CLR 75.6 70 83% 76 29.92 0.0
04 07:15 SE 6 10.00 Fair CLR 73.8 70 88% 29.92 0.0
04 06:55 Calm 10.00 Fair CLR 72.7 69.8 78.4 72.1 91% 29.92 0.0
04 06:35 Calm 10.00 Fair CLR 72.5 69.8 91% 29.91 0.0
04 06:15 S 5 10.00 Fair CLR 73 70 90% 29.91 0.0
04 05:55 S 5 10.00 Fair CLR 73.4 69.8 89% 29.9 0.0
04 05:35 S 5 10.00 Fair CLR 73.8 70 88% 29.9 0.0
04 05:15 S 5 10.00 Fair CLR 74.5 70 86% 29.9 0.0
04 04:55 S 5 10.00 Fair CLR 74.3 70 86% 29.89 0.0
04 04:35 S 5 10.00 Fair CLR 74.5 70.2 86% 29.88 0.0
04 04:15 S 5 7.00 Fog/Mist CLR 74.5 70.2 86% 29.88 0.0
04 03:55 S 5 10.00 Fair CLR 74.5 70.3 87% 29.87 0.0
04 03:35 S 5 10.00 Fair CLR 74.8 70.3 86% 29.87 0.0
04 03:15 S 6 10.00 Fair CLR 75.4 70.3 84% 76 29.87 0.0
04 02:55 S 6 10.00 Fair CLR 76.3 70.3 82% 77 29.87 0.0
04 02:35 S 6 10.00 Fair CLR 77.5 70.5 79% 79 29.88 0.0
04 02:15 S 6 10.00 Fair CLR 77.9 70.5 78% 80 29.88 0.0
04 01:55 SE 7 10.00 Fair CLR 77.7 70.7 79% 80 29.88 0.0
04 01:35 SE 7 10.00 Fair CLR 78.1 70.7 78% 80 29.89 0.0
04 01:15 SE 6 10.00 Fair CLR 77.4 70.9 81% 79 29.89 0.0
04 00:55 SE 6 10.00 Fair CLR 77.2 71.2 88.5 76.8 82% 79 29.89 0.0
04 00:35 SE 6 10.00 Fair CLR 76.8 71.4 83% 78 29.9 0.0
04 00:15 Calm 10.00 Fair CLR 77 71.6 83% 78 29.89 0.0
03 23:55 Calm 10.00 Fair CLR 77.7 71.6 82% 80 29.89 0.0
03 23:35 SE 5 10.00 Fair CLR 78.1 71.6 81% 80 29.89 0.0
03 23:15 SE 5 10.00 Fair CLR 78.8 71.6 79% 82 29.89 0.0
03 22:55 Calm 10.00 Fair CLR 79.2 72 79% 82 29.89 0.0
03 22:35 Calm 10.00 Fair CLR 79.9 72 77% 84 29.89 0.0
03 22:15 Calm 10.00 Fair CLR 81 72.1 75% 85 29.89 0.0
03 21:55 SE 6 10.00 Fair CLR 81.3 72.1 74% 86 29.89 0.0
03 21:35 Calm 10.00 Fair CLR 81.9 72.5 73% 87 29.88 0.0
03 21:15 S 6 10.00 Fair CLR 82.4 72.7 73% 88 29.88 0.0
03 20:55 S 6 10.00 Fair CLR 82.6 73 73% 88 29.87 0.0
03 20:35 S 6 10.00 Fair CLR 83.8 73 70% 90 29.87 0.0
03 20:15 Calm 10.00 Fair CLR 84.2 73.8 71% 91 29.86 0.0
03 19:55 Calm 10.00 Fair CLR 85.3 73.2 67% 92 29.86 0.0
03 19:35 Calm 10.00 Fair CLR 86 73.4 66% 93 29.85 0.0
03 19:15 Calm 10.00 Fair CLR 87.4 73.4 63% 95 29.85 0.0
03 18:55 Calm 10.00 Fair CLR 88.7 73.8 94.6 88.5 61% 97 29.85 0.0
03 18:35 Calm 10.00 Fair CLR 90.3 73.6 58% 99 29.85 0.0
03 18:15 S 6 10.00 Fair CLR 91.2 73.4 56% 100 29.85 0.0
03 17:55 Calm 10.00 Fair CLR 91.9 73.6 55% 101 29.85 0.0
03 17:35 S 6 10.00 Fair CLR 92.7 73.4 54% 102 29.85 0.0
03 17:15 S 9 10.00 Fair CLR 92.7 73.2 53% 102 29.86 0.0
03 16:55 S 9 10.00 Fair CLR 93.4 73.8 53% 103 29.86 0.0
03 16:35 Calm 10.00 Fair CLR 93.6 75 55% 105 29.87 0.0
03 16:15 Calm 10.00 Fair CLR 93.6 73.8 53% 104 29.88 0.0
03 15:55 Calm 10.00 Fair CLR 93.6 73.6 52% 103 29.88 0.0
03 15:35 Calm 10.00 Fair CLR 93.7 73.2 51% 103 29.89 0.0
03 15:15 SW 5 10.00 Fair CLR 94.1 72.1 49% 102 29.9 0.0
03 14:55 Calm 10.00 Fair CLR 94.6 73 50% 104 29.9 0.0
03 14:35 Calm 10.00 Fair CLR 93.6 72.9 51% 103 29.9 0.0
03 14:15 S 9 10.00 Fair CLR 93.6 73.6 52% 103 29.9 0.0
03 13:55 SW 7 10.00 Fair CLR 93.6 72.3 50% 102 29.9 0.0
03 13:35 SW 8 10.00 Fair CLR 93.4 72.9 51% 102 29.91 0.0
03 13:15 S 10 10.00 Fair CLR 92.8 73.4 53% 102 29.91 0.0
03 12:55 SW 9 10.00 Fair CLR 92.7 73 92.8 74.1 53% 102 29.92 0.0
03 12:35 S 8 10.00 Fair CLR 91.8 72.7 54% 100 29.91 0.0
03 12:15 S 9 10.00 Fair CLR 91.9 73.4 55% 101 29.92 0.0
03 11:55 SW 5 10.00 Fair CLR 90.3 71.2 54% 97 29.92 0.0
03 11:35 Calm 10.00 Fair CLR 89.8 72.3 57% 97 29.93 0.0
03 11:15 Calm 10.00 Fair CLR 89.4 72 56% 96 29.93 0.0
03 10:55 SW 5 10.00 Fair CLR 88.7 71.8 57% 95 29.93 0.0
03 10:35 S 3 10.00 Fair CLR 87.1 72.1 61% 94 29.93 0.0
03 10:15 Calm 10.00 Fair CLR 86.4 72 62% 93 29.93 0.0
03 09:55 W 3 10.00 Fair CLR 85.3 71.2 63% 91 29.93 0.0
03 09:35 Calm 10.00 Fair CLR 83.7 71.2 66% 89 29.93 0.0
03 09:15 SW 3 10.00 Fair CLR 82.6 71.1 68% 87 29.93 0.0
03 08:55 S 5 10.00 Fair CLR 81.3 71.1 71% 85 29.93 0.0
03 08:35 Calm 10.00 Fair CLR 79.9 70.7 74% 83 29.93 0.0
03 08:15 SW 5 10.00 Fair CLR 78.6 70.5 76% 81 29.93 0.0
03 07:55 S 3 10.00 Fair CLR 77 70.2 80% 79 29.93 0.0
03 07:35 S 6 10.00 Fair CLR 75.9 70 82% 77 29.92 0.0
03 07:15 S 5 10.00 Fair CLR 74.7 69.6 84% 29.91 0.0
03 06:55 S 6 10.00 Fair CLR 74.5 69.4 78.8 73.9 84% 29.91 0.0
03 06:35 S 6 10.00 Fair CLR 74.7 69.4 84% 29.9 0.0
03 06:15 S 6 4.00 Fair with Haze CLR 74.8 69.4 83% 29.9 0.0
03 05:55 S 5 10.00 Fair CLR 75.4 69.4 82% 76 29.89 0.0
03 05:35 S 3 10.00 Fair CLR 75 69.6 83% 75 29.89 0.0
03 05:15 S 5 10.00 Fair CLR 75.4 69.6 82% 76 29.89 0.0
03 04:55 S 5 10.00 Fair CLR 75.9 69.8 81% 77 29.89 0.0
03 04:35 S 6 10.00 Fair CLR 76.6 69.8 79% 78 29.89 0.0
03 04:15 S 6 10.00 Fair CLR 77 69.8 79% 79 29.89 0.0
03 03:55 S 6 10.00 Fair CLR 76.8 69.8 79% 78 29.89 0.0
03 03:35 S 7 10.00 Fair CLR 77.4 69.8 78% 79 29.89 0.0
03 03:15 S 7 10.00 Fair CLR 78.1 69.8 76% 80 29.89 0.0
03 02:55 S 8 10.00 Fair CLR 78.3 69.8 75% 81 29.89 0.0
03 02:35 S 8 10.00 Fair CLR 78.3 69.8 75% 81 29.89 0.0
03 02:15 S 8 10.00 Fair CLR 78.1 70 76% 80 29.89 0.0
03 01:55 S 7 10.00 Fair CLR 78.1 70 76% 80 29.89 0.0
03 01:35 S 6 10.00 Fair CLR 78.4 70.2 76% 81 29.89 0.0
03 01:15 S 7 10.00 Fair CLR 78.6 70.3 76% 81 29.9 0.0
03 00:55 S 7 10.00 Fair CLR 78.4 70.5 88.5 78.3 77% 81 29.9 0.0
03 00:35 S 6 10.00 Fair CLR 78.6 70.7 77% 81 29.9 0.0
03 00:15 S 6 10.00 Fair CLR 79.2 70.9 76% 82 29.9 0.0
02 23:55 S 7 10.00 Fair CLR 79.3 71.2 76% 83 29.9 0.0
02 23:35 S 5 10.00 Fair CLR 79.7 71.4 76% 83 29.9 0.0
02 23:15 S 7 10.00 Fair CLR 80.1 71.8 76% 84 29.9 0.0
02 22:55 S 7 10.00 Fair CLR 80.8 72.1 75% 85 29.89 0.0
02 22:35 SE 6 10.00 Fair CLR 80.2 72.5 77% 84 29.9 0.0
02 22:15 SE 3 10.00 Fair CLR 80.8 72.7 76% 85 29.9 0.0
02 21:55 SE 3 10.00 Fair CLR 80.8 73 77% 85 29.9 0.0
02 21:35 SE 3 10.00 Fair CLR 81 73.4 78% 86 29.89 0.0
02 21:15 Calm 10.00 Fair CLR 81.1 73.2 77% 86 29.89 0.0
02 20:55 Calm 10.00 Fair CLR 81.7 73.4 76% 87 29.89 0.0
02 20:35 S 5 10.00 Fair CLR 82.9 73.4 73% 89 29.88 0.0
02 20:15 Calm 10.00 Fair CLR 83.3 73.4 72% 90 29.88 0.0
02 19:55 SE 6 10.00 Fair CLR 83.8 73.4 71% 90 29.88 0.0
02 19:35 Calm 10.00 Fair CLR 85.5 73.6 68% 93 29.88 0.0
02 19:15 S 5 10.00 Fair CLR 87.3 73.9 65% 96 29.88 0.0
Date Time (cdt) Wind (mph) Vis. (mi.) Weather Sky Cond. Air Dwpt Max. Min. Relative Humidity Wind Chill (°F) Heat Index (°F) altimeter (in) sea level (mb) 1 hr 3 hr 6 hr
6 hour
Temperature (ºF) Pressure Precipitation (in)